Time;durP1;ratioP1;P1;durP2;ratioP2;P2;SDS_P1;SDS_P2;PMS_P1;PMS_P2;Temp;Humidity;BMP_temperature;BMP_pressure;BME280_temperature;BME280_humidity;BME280_pressure;Samples;Min_cycle;Max_cycle;Signal;HPM_P1;HPM_P2
2022/12/28 00:02:19;;;;;;;12.93;7.40;;;-0.70;99.90;;;;;;5107970;28;20735;-78
2022/12/28 00:04:48;;;;;;;10.50;7.70;;;-0.70;99.90;;;;;;5110446;28;20579;-77
2022/12/28 00:07:19;;;;;;;10.23;7.30;;;-0.70;99.90;;;;;;5109415;28;20484;-77
2022/12/28 00:09:47;;;;;;;9.43;7.20;;;-0.70;99.90;;;;;;5099319;28;20483;-77
2022/12/28 00:12:17;;;;;;;10.00;7.20;;;-0.70;99.90;;;;;;5099784;28;20510;-77
2022/12/28 00:14:45;;;;;;;10.10;7.27;;;-0.70;99.90;;;;;;5098944;28;20846;-76
2022/12/28 00:17:14;;;;;;;10.87;7.97;;;-0.80;99.90;;;;;;5112151;28;20466;-77
2022/12/28 00:19:43;;;;;;;13.27;8.10;;;-0.80;99.90;;;;;;5118296;28;20472;-78
2022/12/28 00:22:11;;;;;;;10.40;7.77;;;-0.70;99.90;;;;;;5119399;28;20465;-77
2022/12/28 00:24:40;;;;;;;10.97;7.67;;;-0.60;99.90;;;;;;5105657;28;20463;-78
2022/12/28 00:27:09;;;;;;;10.07;7.70;;;-0.60;99.90;;;;;;5112466;28;20491;-78
2022/12/28 00:29:39;;;;;;;11.13;8.17;;;-0.70;99.90;;;;;;5102200;28;20487;-77
2022/12/28 00:32:08;;;;;;;11.33;8.07;;;-0.70;99.90;;;;;;5101062;28;20467;-77
2022/12/28 00:34:36;;;;;;;10.03;7.87;;;-0.60;99.90;;;;;;5101824;28;20484;-77
2022/12/28 00:37:05;;;;;;;10.30;7.50;;;-0.50;99.90;;;;;;5102170;28;20470;-78
2022/12/28 00:39:43;;;;;;;11.03;7.10;;;-0.60;99.90;;;;;;5106387;28;20496;-78
2022/12/28 00:42:14;;;;;;;9.47;7.63;;;-0.60;99.90;;;;;;5107743;28;20603;-77
2022/12/28 00:44:45;;;;;;;9.20;6.93;;;-0.70;99.90;;;;;;5118113;28;20509;-78
2022/12/28 00:47:16;;;;;;;10.27;7.37;;;-0.30;99.90;;;;;;5129874;28;20455;-78
2022/12/28 00:49:45;;;;;;;9.73;6.90;;;-0.80;99.90;;;;;;5131132;28;20984;-77
2022/12/28 00:52:15;;;;;;;9.80;6.80;;;-0.70;99.90;;;;;;5136908;28;20456;-77
2022/12/28 00:54:45;;;;;;;11.40;7.07;;;-0.60;99.90;;;;;;5118217;28;20457;-78
2022/12/28 00:57:16;;;;;;;8.93;6.73;;;-0.70;99.90;;;;;;5115073;28;20447;-78
2022/12/28 00:59:50;;;;;;;8.53;6.13;;;-0.60;99.90;;;;;;5118715;28;20456;-78
2022/12/28 01:02:21;;;;;;;9.77;6.73;;;-0.60;99.90;;;;;;5118736;28;20467;-78
2022/12/28 01:04:58;;;;;;;10.93;6.30;;;-0.50;99.90;;;;;;5119037;28;20464;-78
2022/12/28 01:07:42;;;;;;;7.60;5.23;;;-0.50;99.90;;;;;;5118630;28;20445;-78
2022/12/28 01:10:26;;;;;;;9.57;5.93;;;-0.50;99.90;;;;;;5116069;28;20521;-78
2022/12/28 01:23:41;;;;;;;6.87;4.90;;;-0.50;99.90;;;;;;6114578;22;4994332;-77
2022/12/28 01:26:14;;;;;;;6.10;4.47;;;-0.40;99.90;;;;;;6306526;22;20163;-79
2022/12/28 01:28:44;;;;;;;7.27;4.53;;;-0.40;99.90;;;;;;6306871;22;20409;-77
2022/12/28 01:31:16;;;;;;;5.70;4.33;;;-0.40;99.90;;;;;;6304684;22;20440;-77
2022/12/28 01:33:46;;;;;;;4.97;4.03;;;-0.40;99.90;;;;;;6302339;22;20423;-75
2022/12/28 01:36:18;;;;;;;6.50;4.07;;;-0.30;99.90;;;;;;6300797;22;20490;-77
2022/12/28 01:38:52;;;;;;;5.40;3.90;;;-0.30;99.90;;;;;;6300503;22;20416;-77
2022/12/28 01:41:21;;;;;;;5.33;4.10;;;-0.30;99.90;;;;;;6299566;22;20374;-76
2022/12/28 01:44:23;;;;;;;7.43;4.13;;;-0.30;99.90;;;;;;6297944;22;20503;-78
2022/12/28 01:46:55;;;;;;;5.67;3.87;;;-0.20;99.90;;;;;;6296997;22;20472;-77
2022/12/28 01:49:32;;;;;;;5.60;3.63;;;-0.30;99.90;;;;;;6293857;22;20439;-78
2022/12/28 01:52:06;;;;;;;6.70;4.20;;;-0.30;99.90;;;;;;6293700;22;20460;-79
2022/12/28 01:54:40;;;;;;;5.83;4.20;;;-0.30;99.90;;;;;;6293476;22;20405;-77
2022/12/28 01:57:09;;;;;;;5.73;3.97;;;-0.20;99.90;;;;;;6273136;22;20554;-77
2022/12/28 01:59:41;;;;;;;6.67;4.30;;;-0.10;99.90;;;;;;6261839;23;20418;-79
2022/12/28 02:02:11;;;;;;;5.57;3.60;;;-0.20;99.90;;;;;;6261719;23;20462;-77
2022/12/28 02:04:39;;;;;;;5.27;3.60;;;-0.20;99.90;;;;;;6260918;23;20417;-76
2022/12/28 02:07:09;;;;;;;5.23;3.70;;;-0.10;99.90;;;;;;6258416;23;20414;-78
2022/12/28 02:09:42;;;;;;;7.23;3.30;;;-0.10;99.90;;;;;;6260677;23;20421;-78
2022/12/28 02:12:32;;;;;;;4.97;3.53;;;-0.10;99.90;;;;;;6260290;23;20440;-77
2022/12/28 02:15:01;;;;;;;5.10;3.60;;;-0.20;99.90;;;;;;6263398;23;20427;-76
2022/12/28 02:17:30;;;;;;;5.07;3.67;;;0.00;99.90;;;;;;6260450;23;20456;-78
2022/12/28 02:19:58;;;;;;;4.43;3.33;;;0.00;99.90;;;;;;6258412;23;20484;-76
2022/12/28 02:23:14;;;;;;;4.80;3.53;;;0.00;99.90;;;;;;6258082;23;20456;-78
2022/12/28 02:26:22;;;;;;;4.37;3.40;;;-0.10;99.90;;;;;;6253957;23;20493;-77
2022/12/28 02:29:51;;;;;;;4.07;3.03;;;-0.10;99.90;;;;;;6252362;23;20435;-78
2022/12/28 02:32:34;;;;;;;4.17;2.93;;;-0.10;99.90;;;;;;6254086;23;20446;-78
2022/12/28 02:35:08;;;;;;;5.83;3.23;;;-0.10;99.90;;;;;;6251207;23;20417;-76
2022/12/28 02:37:42;;;;;;;4.07;3.00;;;0.00;99.90;;;;;;6252551;23;20379;-78
2022/12/28 02:40:15;;;;;;;4.40;3.00;;;0.00;99.90;;;;;;6252024;23;20432;-77
2022/12/28 02:42:45;;;;;;;3.33;2.70;;;0.00;99.90;;;;;;6254460;23;20414;-78
2022/12/28 02:51:24;;;;;;;5.10;2.70;;;0.00;99.90;;;;;;6254454;23;20441;-76
2022/12/28 02:57:17;;;;;;;3.40;2.63;;;0.00;99.90;;;;;;6247217;22;20445;-76
2022/12/28 02:59:58;;;;;;;4.57;2.50;;;0.00;99.90;;;;;;6251298;23;20446;-76
2022/12/28 03:02:43;;;;;;;3.50;2.40;;;0.10;99.90;;;;;;6250129;23;20508;-76
2022/12/28 03:08:13;;;;;;;3.13;2.50;;;0.20;99.90;;;;;;6249614;23;20418;-78
2022/12/28 03:08:18;;;;;;;2.80;2.50;;;0.20;99.90;;;;;;6248284;23;20416;-77
2022/12/28 03:10:52;;;;;;;3.40;2.40;;;0.20;99.90;;;;;;6247963;23;20444;-76
2022/12/28 03:13:42;;;;;;;3.23;2.40;;;0.30;99.90;;;;;;6247640;23;20458;-77
2022/12/28 03:16:17;;;;;;;3.80;2.50;;;0.30;99.90;;;;;;6248654;23;20750;-77
2022/12/28 03:32:53;;;;;;;3.07;2.23;;;0.20;99.90;;;;;;6250656;23;20429;-77
2022/12/28 03:35:31;;;;;;;3.30;2.07;;;0.20;99.90;;;;;;6248612;23;20418;-77
2022/12/28 03:38:01;;;;;;;4.00;2.40;;;0.20;99.90;;;;;;6248194;23;20410;-78
2022/12/28 03:40:38;;;;;;;3.10;2.23;;;0.30;99.90;;;;;;6250500;23;20419;-78
2022/12/28 03:46:04;;;;;;;4.07;2.30;;;0.10;99.90;;;;;;6247585;23;20428;-77
2022/12/28 03:48:36;;;;;;;2.47;1.87;;;0.10;99.90;;;;;;6247730;23;20462;-80
2022/12/28 03:51:06;;;;;;;2.53;2.10;;;0.10;99.90;;;;;;6247257;23;20442;-78
2022/12/28 03:53:40;;;;;;;2.83;2.10;;;0.10;99.90;;;;;;6247493;23;20439;-79
2022/12/28 03:56:10;;;;;;;2.03;1.50;;;0.00;99.90;;;;;;6247126;22;20545;-78
2022/12/28 03:58:39;;;;;;;3.07;2.10;;;0.10;99.90;;;;;;6246870;23;20417;-79
2022/12/28 04:01:07;;;;;;;2.83;1.90;;;0.10;99.90;;;;;;6246744;23;20418;-76
2022/12/28 04:03:36;;;;;;;1.80;1.60;;;0.10;99.90;;;;;;6247074;23;20898;-79
2022/12/28 04:06:07;;;;;;;2.10;1.70;;;0.10;99.90;;;;;;6247777;23;20425;-78
2022/12/28 04:08:36;;;;;;;1.80;1.60;;;0.20;99.90;;;;;;6247004;23;20457;-75
2022/12/28 04:11:04;;;;;;;2.17;1.87;;;0.20;99.90;;;;;;6246511;23;20428;-79
2022/12/28 04:13:33;;;;;;;2.53;1.67;;;0.20;99.90;;;;;;6247417;23;20447;-78
2022/12/28 04:16:03;;;;;;;2.53;1.60;;;0.30;99.90;;;;;;6247263;23;20398;-78
2022/12/28 04:18:31;;;;;;;3.30;1.90;;;0.30;99.90;;;;;;6252383;23;20399;-79
2022/12/28 04:21:00;;;;;;;2.07;1.60;;;0.30;99.90;;;;;;6260296;23;20926;-78
2022/12/28 04:23:31;;;;;;;2.70;1.80;;;0.30;99.90;;;;;;6254247;23;20513;-78
2022/12/28 04:26:01;;;;;;;2.73;2.20;;;0.40;99.90;;;;;;6251417;23;20972;-77
2022/12/28 04:28:31;;;;;;;2.90;2.03;;;0.40;99.90;;;;;;6245898;23;20421;-77
2022/12/28 04:31:00;;;;;;;4.20;2.33;;;0.40;99.90;;;;;;6246722;23;20412;-76
2022/12/28 04:33:31;;;;;;;5.03;2.20;;;0.40;99.90;;;;;;6246624;23;21053;-76
2022/12/28 04:36:05;;;;;;;3.00;1.90;;;0.40;99.90;;;;;;6246684;23;20398;-77
2022/12/28 04:38:35;;;;;;;3.33;2.07;;;0.40;99.90;;;;;;6248260;23;20711;-77
2022/12/28 04:41:05;;;;;;;1.70;1.60;;;0.40;99.90;;;;;;6247624;23;20425;-77
2022/12/28 04:43:34;;;;;;;1.77;1.50;;;0.40;99.90;;;;;;6246574;23;20446;-77
2022/12/28 04:46:04;;;;;;;4.03;1.60;;;0.40;99.90;;;;;;6246704;23;20541;-75
2022/12/28 04:48:34;;;;;;;2.43;1.70;;;0.50;99.90;;;;;;6247052;23;20780;-78
2022/12/28 04:51:06;;;;;;;2.03;1.50;;;0.50;99.90;;;;;;6247172;23;20744;-77
2022/12/28 04:53:38;;;;;;;2.27;1.60;;;0.50;99.90;;;;;;6247749;23;20446;-76
2022/12/28 04:56:08;;;;;;;2.13;1.40;;;0.60;99.90;;;;;;6247865;22;20441;-77
2022/12/28 04:58:37;;;;;;;2.77;1.90;;;0.50;99.90;;;;;;6250651;23;20646;-76
2022/12/28 05:01:07;;;;;;;2.40;2.00;;;0.50;99.90;;;;;;6248912;23;20425;-77
2022/12/28 05:03:36;;;;;;;3.17;1.80;;;0.60;99.90;;;;;;6248662;23;20421;-78
2022/12/28 05:06:07;;;;;;;2.17;1.70;;;0.60;99.90;;;;;;6248429;23;20405;-77
2022/12/28 05:08:36;;;;;;;1.80;1.60;;;0.60;99.90;;;;;;6246336;23;20425;-77
2022/12/28 05:11:07;;;;;;;3.57;1.60;;;0.60;99.90;;;;;;6246922;23;20185;-78
2022/12/28 05:13:35;;;;;;;2.37;1.30;;;0.50;99.90;;;;;;6246665;23;20563;-76
2022/12/28 05:16:05;;;;;;;1.90;1.53;;;0.50;99.90;;;;;;6247914;23;20425;-78
2022/12/28 05:18:34;;;;;;;1.83;1.70;;;0.50;99.90;;;;;;6248066;23;20419;-76
2022/12/28 05:21:04;;;;;;;2.77;1.90;;;0.40;99.90;;;;;;6247032;23;21014;-77
2022/12/28 05:23:35;;;;;;;2.87;2.00;;;0.40;99.90;;;;;;6246882;23;20406;-78
2022/12/28 05:26:06;;;;;;;2.90;2.13;;;0.40;99.90;;;;;;6247102;23;20418;-77
2022/12/28 05:28:35;;;;;;;2.93;2.10;;;0.40;99.90;;;;;;6246775;23;20179;-77
2022/12/28 05:31:05;;;;;;;3.73;2.63;;;0.40;99.90;;;;;;6246501;23;20450;-76
2022/12/28 05:33:35;;;;;;;2.67;2.10;;;0.40;99.90;;;;;;6249036;23;20438;-76
2022/12/28 05:36:05;;;;;;;2.23;1.57;;;0.50;99.90;;;;;;6249702;23;20434;-76
2022/12/28 05:38:33;;;;;;;1.80;1.70;;;0.50;99.90;;;;;;6249129;23;20427;-78
2022/12/28 05:41:08;;;;;;;2.20;1.57;;;0.60;99.90;;;;;;6250982;23;20429;-76
2022/12/28 05:43:37;;;;;;;1.97;1.40;;;0.50;99.90;;;;;;6251767;23;20215;-77
2022/12/28 05:46:07;;;;;;;2.57;1.73;;;0.60;99.90;;;;;;6250510;23;20426;-76
2022/12/28 05:48:37;;;;;;;1.87;1.43;;;0.60;99.90;;;;;;6252162;23;20413;-78
2022/12/28 05:51:08;;;;;;;1.67;1.40;;;0.60;99.90;;;;;;6252231;23;20886;-78
2022/12/28 05:53:37;;;;;;;1.63;1.37;;;0.70;99.90;;;;;;6252369;23;20198;-76
2022/12/28 05:56:09;;;;;;;3.17;1.73;;;0.70;99.90;;;;;;6256549;22;20497;-76
2022/12/28 05:58:42;;;;;;;1.87;1.53;;;0.80;99.90;;;;;;6258870;23;20179;-79
2022/12/28 06:01:12;;;;;;;1.70;1.60;;;0.80;99.90;;;;;;6261546;23;20410;-78
2022/12/28 06:03:41;;;;;;;1.90;1.60;;;0.90;99.90;;;;;;6262289;23;20179;-78
2022/12/28 06:06:13;;;;;;;1.70;1.50;;;0.90;99.90;;;;;;6255479;23;20187;-78
2022/12/28 06:08:43;;;;;;;3.37;1.50;;;0.90;99.90;;;;;;6259563;23;20418;-78
2022/12/28 06:11:14;;;;;;;1.33;1.23;;;0.90;99.90;;;;;;6258324;23;20186;-77
2022/12/28 06:13:43;;;;;;;1.97;1.50;;;1.10;99.90;;;;;;6261537;23;20192;-77
2022/12/28 06:16:14;;;;;;;1.63;1.47;;;1.00;99.90;;;;;;6266021;23;20176;-78
2022/12/28 06:18:43;;;;;;;3.33;1.77;;;1.00;99.90;;;;;;6268010;23;20188;-79
2022/12/28 06:21:16;;;;;;;3.13;1.80;;;1.10;99.90;;;;;;6267563;23;20187;-79
2022/12/28 06:23:46;;;;;;;2.63;1.73;;;1.10;99.90;;;;;;6269078;23;20163;-79
2022/12/28 06:26:21;;;;;;;3.37;2.30;;;1.20;99.90;;;;;;6269195;23;20184;-79
2022/12/28 06:28:51;;;;;;;2.87;2.00;;;1.20;99.90;;;;;;6269054;23;20190;-78
2022/12/28 06:31:24;;;;;;;3.63;2.20;;;1.10;99.90;;;;;;6269255;23;20180;-79
2022/12/28 06:33:56;;;;;;;2.43;1.60;;;1.20;99.90;;;;;;6268743;23;20448;-79
2022/12/28 06:36:30;;;;;;;2.13;1.80;;;1.40;99.90;;;;;;6270931;23;20179;-79
2022/12/28 06:39:02;;;;;;;2.10;1.90;;;1.30;99.90;;;;;;6271100;23;20401;-80
2022/12/28 06:41:35;;;;;;;2.80;1.93;;;1.40;99.90;;;;;;6271747;23;20422;-79
2022/12/28 06:44:07;;;;;;;2.77;1.83;;;1.60;99.90;;;;;;6270431;23;20202;-80
2022/12/28 06:46:39;;;;;;;8.93;5.93;;;1.50;99.90;;;;;;6244660;23;20180;-79
2022/12/28 06:49:10;;;;;;;2.97;2.27;;;1.50;99.90;;;;;;6269707;23;20226;-79
2022/12/28 06:51:40;;;;;;;3.47;2.00;;;1.40;99.90;;;;;;6270888;23;20175;-80
2022/12/28 06:54:10;;;;;;;2.50;1.87;;;1.60;99.90;;;;;;6266534;23;20448;-80
2022/12/28 06:56:41;;;;;;;3.73;2.20;;;1.50;99.90;;;;;;6267060;22;20199;-79
2022/12/28 06:59:10;;;;;;;2.93;1.90;;;1.60;99.90;;;;;;6268112;23;20172;-79
2022/12/28 07:01:44;;;;;;;1.70;1.30;;;1.70;99.90;;;;;;6269008;23;20229;-80
2022/12/28 07:04:18;;;;;;;1.70;1.40;;;1.80;99.90;;;;;;6271065;22;20186;-80
2022/12/28 07:06:52;;;;;;;1.30;1.20;;;2.10;99.90;;;;;;6267509;23;20172;-79
2022/12/28 07:09:23;;;;;;;1.97;1.30;;;2.30;99.90;;;;;;6268424;23;20194;-77
2022/12/28 07:11:56;;;;;;;2.70;1.30;;;2.30;99.90;;;;;;6266421;23;20207;-78
2022/12/28 07:14:28;;;;;;;1.73;1.30;;;2.40;99.90;;;;;;6268918;23;20230;-80
2022/12/28 07:17:01;;;;;;;3.87;1.20;;;2.50;99.90;;;;;;6267112;23;20178;-79
2022/12/28 07:22:08;;;;;;;2.10;1.27;;;2.60;99.90;;;;;;6255328;22;20206;-79
2022/12/28 07:24:38;;;;;;;1.47;1.30;;;2.70;99.90;;;;;;6292104;22;20183;-79
2022/12/28 07:27:08;;;;;;;2.87;1.37;;;2.70;99.90;;;;;;6294691;22;20359;-79
2022/12/28 07:29:37;;;;;;;2.83;1.40;;;2.80;99.90;;;;;;6299535;22;20171;-79
2022/12/28 07:32:07;;;;;;;1.87;1.17;;;2.80;99.90;;;;;;6295118;22;20179;-79
2022/12/28 07:34:36;;;;;;;1.97;1.23;;;2.90;99.90;;;;;;6294130;22;20212;-79
2022/12/28 07:37:05;;;;;;;1.30;1.20;;;3.00;99.90;;;;;;6295646;22;20171;-79
2022/12/28 07:39:35;;;;;;;2.47;1.40;;;3.00;99.90;;;;;;6294905;22;20205;-79
2022/12/28 07:42:07;;;;;;;1.37;1.20;;;3.10;99.90;;;;;;6292535;22;20179;-79
2022/12/28 07:44:40;;;;;;;3.93;1.50;;;3.00;99.90;;;;;;6266059;22;20159;-78
2022/12/28 07:47:16;;;;;;;2.07;1.50;;;3.10;99.90;;;;;;6294046;22;20221;-78
2022/12/28 07:49:51;;;;;;;3.80;1.40;;;3.10;99.90;;;;;;6293968;22;20208;-78
2022/12/28 07:55:19;;;;;;;2.43;1.40;;;3.20;99.90;;;;;;6299645;22;20186;-78
2022/12/28 07:58:05;;;;;;;1.13;1.03;;;3.20;99.90;;;;;;6296653;22;20254;-77
2022/12/28 08:00:40;;;;;;;1.30;1.20;;;3.40;99.90;;;;;;6297907;22;20206;-79
2022/12/28 08:03:09;;;;;;;3.13;1.10;;;3.50;99.90;;;;;;6243409;22;20182;-77
2022/12/28 08:05:38;;;;;;;2.03;1.17;;;3.50;99.90;;;;;;6280238;22;20230;-78
2022/12/28 08:08:07;;;;;;;1.37;1.27;;;3.50;99.90;;;;;;6264899;23;20183;-78
2022/12/28 08:10:37;;;;;;;2.33;1.20;;;3.70;99.90;;;;;;6261243;23;20458;-78
2022/12/28 08:13:09;;;;;;;2.77;1.27;;;3.60;99.90;;;;;;6263917;23;20250;-77
2022/12/28 08:15:40;;;;;;;1.63;1.13;;;3.70;99.90;;;;;;6265559;23;20206;-78
2022/12/28 08:18:08;;;;;;;1.33;1.17;;;3.70;99.90;;;;;;6263540;23;20183;-77
2022/12/28 08:20:39;;;;;;;2.20;1.30;;;3.90;99.90;;;;;;6256840;23;20235;-78
2022/12/28 08:23:07;;;;;;;3.07;1.43;;;4.00;99.90;;;;;;6236391;23;20183;-77
2022/12/28 08:25:36;;;;;;;1.30;1.20;;;4.00;99.90;;;;;;6258952;23;20247;-78
2022/12/28 08:28:05;;;;;;;3.13;1.03;;;4.00;99.90;;;;;;6255030;23;20183;-77
2022/12/28 08:30:35;;;;;;;1.90;1.20;;;4.00;99.90;;;;;;6254920;23;20191;-78
2022/12/28 08:33:04;;;;;;;2.27;1.20;;;4.10;99.90;;;;;;6260516;23;20199;-78
2022/12/28 08:35:33;;;;;;;2.47;1.47;;;4.00;99.90;;;;;;6258113;23;20199;-79
2022/12/28 08:38:03;;;;;;;3.13;1.60;;;4.10;99.90;;;;;;6252060;23;20207;-77
2022/12/28 08:40:32;;;;;;;1.27;1.17;;;4.10;99.90;;;;;;6248139;23;20211;-75
2022/12/28 08:43:00;;;;;;;3.63;1.40;;;4.10;99.90;;;;;;6246847;23;20204;-77
2022/12/28 08:45:28;;;;;;;2.00;1.23;;;4.20;99.90;;;;;;6246835;23;20183;-75
2022/12/28 08:47:57;;;;;;;2.23;1.40;;;4.20;99.90;;;;;;6246401;23;20255;-77
2022/12/28 08:50:26;;;;;;;2.23;1.43;;;4.30;99.90;;;;;;6249005;23;20511;-78
2022/12/28 08:52:58;;;;;;;2.37;1.40;;;4.40;99.90;;;;;;6247432;23;20168;-77
2022/12/28 08:55:34;;;;;;;2.83;1.33;;;4.50;99.90;;;;;;6246868;23;20196;-77
2022/12/28 08:58:02;;;;;;;1.37;1.10;;;4.60;99.90;;;;;;6247254;23;20163;-77
2022/12/28 09:00:31;;;;;;;2.77;1.40;;;4.70;99.90;;;;;;6247508;23;20183;-75
2022/12/28 09:02:59;;;;;;;2.20;1.27;;;4.80;99.90;;;;;;6247097;23;20215;-77
2022/12/28 09:05:29;;;;;;;2.30;1.20;;;4.90;99.90;;;;;;6246470;22;20202;-78
2022/12/28 09:08:06;;;;;;;2.00;1.20;;;4.90;99.90;;;;;;6244926;23;20195;-77
2022/12/28 09:10:35;;;;;;;1.40;1.30;;;5.00;99.90;;;;;;6246832;23;20195;-76
2022/12/28 09:13:05;;;;;;;2.33;1.53;;;5.10;99.90;;;;;;6244712;23;20261;-76
2022/12/28 09:15:36;;;;;;;1.33;1.20;;;5.10;99.90;;;;;;6244482;23;20226;-75
2022/12/28 09:18:04;;;;;;;2.43;1.30;;;5.10;99.90;;;;;;6244603;23;20195;-76
2022/12/28 09:20:36;;;;;;;3.37;1.50;;;5.30;99.90;;;;;;6247787;23;20191;-76
2022/12/28 09:23:11;;;;;;;1.90;1.43;;;5.30;99.90;;;;;;6245348;23;20171;-77
2022/12/28 09:25:39;;;;;;;1.60;1.43;;;5.60;99.90;;;;;;6246490;23;20516;-75
2022/12/28 09:28:17;;;;;;;5.63;2.00;;;5.70;99.90;;;;;;6245297;23;20179;-76
2022/12/28 09:30:45;;;;;;;1.40;1.30;;;5.70;99.90;;;;;;6254348;23;20163;-77
2022/12/28 09:36:19;;;;;;;3.30;1.37;;;6.10;99.90;;;;;;6268308;23;20199;-76
2022/12/28 09:38:55;;;;;;;1.53;1.20;;;6.10;99.90;;;;;;6255955;23;20499;-75
2022/12/28 09:41:28;;;;;;;2.30;1.03;;;6.20;99.90;;;;;;6249812;23;20493;-75
2022/12/28 09:44:17;;;;;;;3.60;1.00;;;6.20;99.90;;;;;;6248415;23;20222;-73
2022/12/28 09:46:54;;;;;;;0.80;0.80;;;6.20;99.90;;;;;;6247928;23;20199;-76
2022/12/28 09:49:30;;;;;;;2.20;1.17;;;6.10;99.90;;;;;;6248076;23;20251;-74
2022/12/28 09:52:10;;;;;;;5.10;1.20;;;6.10;99.90;;;;;;6247920;23;20506;-75
2022/12/28 09:54:40;;;;;;;2.17;1.20;;;6.20;99.90;;;;;;6247315;23;20187;-75
2022/12/28 09:57:13;;;;;;;7.30;1.40;;;6.40;99.90;;;;;;6248195;23;20208;-76
2022/12/28 09:59:42;;;;;;;3.30;1.20;;;6.60;99.90;;;;;;6246177;22;20219;-75
2022/12/28 10:02:19;;;;;;;2.40;1.50;;;6.80;99.90;;;;;;6247070;23;20683;-74
2022/12/28 10:04:49;;;;;;;1.53;1.20;;;7.10;99.90;;;;;;6246758;23;20171;-76
2022/12/28 10:07:19;;;;;;;1.67;1.20;;;7.40;99.90;;;;;;6246158;23;20187;-75
2022/12/28 10:09:48;;;;;;;1.10;0.97;;;7.50;99.90;;;;;;6244730;23;20258;-75
2022/12/28 10:12:18;;;;;;;1.97;1.00;;;7.70;99.90;;;;;;6245491;23;20254;-76
2022/12/28 10:14:46;;;;;;;1.20;1.10;;;8.10;99.90;;;;;;6245892;22;20282;-75
2022/12/28 10:17:17;;;;;;;1.90;1.10;;;8.30;99.90;;;;;;6245485;22;20341;-77
2022/12/28 10:19:46;;;;;;;1.63;1.00;;;8.70;99.90;;;;;;6247207;23;20247;-76
2022/12/28 10:22:16;;;;;;;1.63;1.00;;;9.00;99.90;;;;;;6246704;23;20183;-76
2022/12/28 10:24:47;;;;;;;2.50;1.10;;;9.60;99.90;;;;;;6247777;23;20182;-76
2022/12/28 10:27:21;;;;;;;1.50;1.10;;;10.20;99.90;;;;;;6245445;23;20211;-77
2022/12/28 10:29:51;;;;;;;1.40;0.90;;;10.60;99.90;;;;;;6246379;23;20546;-77
2022/12/28 10:32:20;;;;;;;2.10;1.07;;;10.30;99.90;;;;;;6246938;23;20190;-77
2022/12/28 10:34:57;;;;;;;0.93;0.70;;;9.80;99.90;;;;;;6245793;23;20191;-75
2022/12/28 10:37:29;;;;;;;1.33;0.87;;;9.40;99.90;;;;;;6246904;23;20217;-75
2022/12/28 10:40:02;;;;;;;3.57;0.80;;;9.40;99.90;;;;;;6246465;23;20246;-77
2022/12/28 10:42:35;;;;;;;2.27;1.30;;;9.30;99.90;;;;;;6245928;23;20218;-78
2022/12/28 10:45:07;;;;;;;1.50;1.10;;;9.50;99.90;;;;;;6246617;23;20195;-77
2022/12/28 10:47:42;;;;;;;2.30;1.00;;;9.40;99.90;;;;;;6246975;23;20258;-77
2022/12/28 10:50:44;;;;;;;1.80;1.03;;;9.40;99.90;;;;;;6246730;23;20674;-77
2022/12/28 10:53:25;;;;;;;2.30;1.13;;;9.10;99.90;;;;;;6246049;23;20168;-76
2022/12/28 10:56:15;;;;;;;1.13;0.97;;;8.80;99.90;;;;;;6246795;23;20631;-76
2022/12/28 10:58:47;;;;;;;2.40;0.93;;;8.70;99.90;;;;;;6245593;23;20206;-75
2022/12/28 11:01:24;;;;;;;0.90;0.90;;;8.40;99.90;;;;;;6246285;23;20246;-76
2022/12/28 11:04:05;;;;;;;2.37;1.13;;;8.20;99.90;;;;;;6246385;23;20167;-76
2022/12/28 11:06:34;;;;;;;3.67;1.10;;;8.20;99.90;;;;;;6246873;23;20258;-76
2022/12/28 11:09:13;;;;;;;2.57;1.50;;;8.10;99.90;;;;;;6244386;23;20195;-76
2022/12/28 11:11:43;;;;;;;2.40;1.27;;;8.00;99.90;;;;;;6246304;23;20616;-75
2022/12/28 11:14:24;;;;;;;1.90;1.00;;;7.90;99.90;;;;;;6246685;23;20243;-75
2022/12/28 11:16:53;;;;;;;2.57;0.90;;;8.10;99.90;;;;;;6246933;22;20203;-76
2022/12/28 11:19:22;;;;;;;2.97;0.90;;;8.80;99.90;;;;;;6245208;22;20206;-76
2022/12/28 11:21:52;;;;;;;1.43;1.00;;;9.30;99.90;;;;;;6246235;23;20238;-76
2022/12/28 11:24:25;;;;;;;4.13;1.20;;;9.90;99.90;;;;;;6245294;23;20179;-77
2022/12/28 11:26:55;;;;;;;2.83;1.07;;;10.10;99.90;;;;;;6245332;23;20175;-77
2022/12/28 11:29:24;;;;;;;1.83;0.90;;;11.00;99.90;;;;;;6243076;23;20730;-79
2022/12/28 11:32:00;;;;;;;2.40;1.00;;;12.00;99.90;;;;;;6246109;23;20164;-79
2022/12/28 11:34:31;;;;;;;2.50;1.03;;;12.50;99.90;;;;;;6246428;23;20174;-79
2022/12/28 11:36:59;;;;;;;1.70;0.83;;;12.30;99.90;;;;;;6246356;23;20180;-77
2022/12/28 11:39:44;;;;;;;0.97;0.80;;;12.50;99.90;;;;;;6247214;23;20187;-78
2022/12/28 11:42:57;;;;;;;1.40;1.27;;;12.20;99.90;;;;;;6246955;22;20211;-78
2022/12/28 11:45:51;;;;;;;0.83;0.80;;;12.30;99.90;;;;;;6230684;23;20250;-78
2022/12/28 11:48:49;;;;;;;1.83;0.70;;;12.00;99.90;;;;;;6255288;23;20175;-78
2022/12/28 11:51:22;;;;;;;0.70;0.70;;;12.20;99.90;;;;;;6220031;23;20707;-78
2022/12/28 11:53:57;;;;;;;2.23;0.83;;;12.30;99.90;;;;;;6247877;23;20719;-78
2022/12/28 11:56:27;;;;;;;1.07;0.97;;;12.50;99.90;;;;;;6250088;23;20178;-79
2022/12/28 11:59:20;;;;;;;0.80;0.80;;;12.20;99.90;;;;;;6251367;23;20186;-77
2022/12/28 12:01:56;;;;;;;0.80;0.80;;;11.50;99.90;;;;;;6245214;22;20206;-78
2022/12/28 12:04:31;;;;;;;2.00;1.17;;;10.40;99.90;;;;;;6246874;23;20214;-77
2022/12/28 12:07:46;;;;;;;1.43;1.07;;;10.20;99.90;;;;;;6247506;23;20231;-78
2022/12/28 12:10:33;;;;;;;2.17;1.20;;;10.10;99.90;;;;;;6222879;23;20717;-78
2022/12/28 12:13:41;;;;;;;2.73;1.00;;;9.70;99.90;;;;;;6248929;23;20507;-76
2022/12/28 12:16:22;;;;;;;2.07;1.00;;;9.50;99.90;;;;;;6213757;23;20235;-76
2022/12/28 12:18:53;;;;;;;3.37;1.00;;;9.40;99.90;;;;;;6249334;23;20159;-78
2022/12/28 12:21:30;;;;;;;1.20;0.93;;;9.50;99.90;;;;;;6249980;23;20186;-76
2022/12/28 12:24:13;;;;;;;1.77;1.50;;;9.20;99.90;;;;;;6254002;23;20183;-76
2022/12/28 12:26:48;;;;;;;2.10;1.90;;;9.00;99.90;;;;;;6250280;23;20164;-76
2022/12/28 12:29:21;;;;;;;4.90;1.90;;;8.80;99.90;;;;;;6251534;23;20159;-75
2022/12/28 12:31:58;;;;;;;3.37;2.20;;;8.80;99.90;;;;;;6248854;23;20200;-77
2022/12/28 12:34:39;;;;;;;2.93;1.53;;;8.60;99.90;;;;;;6250231;23;20183;-78
2022/12/28 12:37:32;;;;;;;2.07;1.20;;;8.80;99.90;;;;;;6250861;23;20267;-77
2022/12/28 12:40:45;;;;;;;4.17;1.23;;;9.00;99.90;;;;;;6247045;23;20175;-79
2022/12/28 12:43:28;;;;;;;1.87;0.90;;;9.20;99.90;;;;;;6250278;23;20495;-78
2022/12/28 12:46:38;;;;;;;3.93;1.10;;;9.40;99.90;;;;;;6260856;23;20201;-78
2022/12/28 12:49:26;;;;;;;2.33;0.90;;;9.40;99.90;;;;;;6138796;23;20702;-80
2022/12/28 12:52:03;;;;;;;1.17;0.90;;;9.50;99.90;;;;;;6239066;23;20601;-77
2022/12/28 12:54:41;;;;;;;0.93;0.70;;;9.40;99.90;;;;;;6248964;23;20219;-75
2022/12/28 12:57:14;;;;;;;1.50;1.00;;;9.40;99.90;;;;;;6249699;23;20535;-76
2022/12/28 13:00:09;;;;;;;4.70;1.20;;;9.40;99.90;;;;;;6248237;23;20254;-76
2022/12/28 13:03:15;;;;;;;2.03;1.03;;;9.40;99.90;;;;;;6248299;23;20176;-77
2022/12/28 13:05:52;;;;;;;2.67;1.10;;;9.40;99.90;;;;;;6250881;23;20164;-75
2022/12/28 13:08:27;;;;;;;3.10;1.13;;;9.30;99.90;;;;;;6250651;23;20175;-77
2022/12/28 13:10:55;;;;;;;1.23;0.87;;;9.20;99.90;;;;;;6252793;23;20595;-76
2022/12/28 13:13:31;;;;;;;1.60;0.93;;;9.20;99.90;;;;;;6251207;23;20195;-76
2022/12/28 13:16:03;;;;;;;1.47;1.00;;;9.30;99.90;;;;;;6246825;23;20596;-77
2022/12/28 13:18:32;;;;;;;2.13;0.90;;;9.40;99.90;;;;;;6247750;23;20202;-76
2022/12/28 13:21:20;;;;;;;2.43;0.90;;;9.40;99.90;;;;;;6250687;23;20191;-75
2022/12/28 13:23:50;;;;;;;2.73;1.10;;;9.40;99.90;;;;;;6249680;23;20171;-77
2022/12/28 13:26:23;;;;;;;2.60;1.03;;;9.30;99.90;;;;;;6250656;23;20187;-77
2022/12/28 13:28:57;;;;;;;1.10;0.80;;;9.30;99.90;;;;;;6249682;23;20180;-76
2022/12/28 13:31:31;;;;;;;1.30;0.90;;;9.30;99.90;;;;;;6249682;23;20218;-76
2022/12/28 13:34:01;;;;;;;2.57;0.80;;;9.40;99.90;;;;;;6249740;23;20169;-77
2022/12/28 13:36:31;;;;;;;2.00;0.90;;;9.60;99.90;;;;;;6248094;23;20192;-76
2022/12/28 13:39:03;;;;;;;2.90;0.90;;;9.50;99.90;;;;;;6251100;23;20203;-77
2022/12/28 13:41:34;;;;;;;1.47;0.90;;;9.40;99.90;;;;;;6249815;23;20164;-77
2022/12/28 13:44:22;;;;;;;2.57;1.00;;;9.30;99.90;;;;;;6251121;23;20168;-77
2022/12/28 13:46:55;;;;;;;2.07;1.07;;;9.20;99.90;;;;;;6249180;23;20198;-77
2022/12/28 13:49:25;;;;;;;2.20;0.97;;;9.10;99.90;;;;;;6248588;23;20176;-76
2022/12/28 13:51:56;;;;;;;1.90;1.00;;;9.10;99.90;;;;;;6251214;23;20168;-77
2022/12/28 13:54:27;;;;;;;2.23;1.07;;;9.10;99.90;;;;;;6246842;23;20279;-77
2022/12/28 13:56:57;;;;;;;2.43;0.80;;;9.00;99.90;;;;;;6249584;23;20168;-76
2022/12/28 13:59:47;;;;;;;2.10;0.90;;;9.00;99.90;;;;;;6247457;23;20186;-77
2022/12/28 14:02:20;;;;;;;2.17;1.10;;;8.80;99.90;;;;;;6250154;23;20266;-76
2022/12/28 14:04:51;;;;;;;3.27;2.00;;;8.80;99.90;;;;;;6253717;22;20217;-77
2022/12/28 14:07:26;;;;;;;2.23;1.37;;;8.70;99.90;;;;;;6247558;23;20218;-77
2022/12/28 14:09:55;;;;;;;2.43;1.37;;;8.60;99.90;;;;;;6246503;23;20218;-75
2022/12/28 14:12:27;;;;;;;4.67;1.40;;;8.60;99.90;;;;;;6247789;23;20179;-77
2022/12/28 14:14:55;;;;;;;3.53;1.27;;;8.50;99.90;;;;;;6247138;23;20199;-77